createdAt,value
2019-03-17T00:00:57.003Z,997.23
2019-03-17T00:01:57.933Z,997.20
2019-03-17T00:03:49.776Z,997.20
2019-03-17T00:04:49.678Z,997.22
2019-03-17T00:06:42.477Z,997.16
2019-03-17T00:07:42.384Z,997.18
2019-03-17T00:09:35.158Z,997.16
2019-03-17T00:10:35.081Z,997.15
2019-03-17T00:12:27.867Z,997.07
2019-03-17T00:13:27.784Z,997.06
2019-03-17T00:15:20.595Z,996.90
2019-03-17T00:16:20.549Z,996.86
2019-03-17T00:18:13.330Z,996.92
2019-03-17T00:19:13.212Z,996.84
2019-03-17T00:21:05.989Z,996.85
2019-03-17T00:22:05.928Z,996.80
2019-03-17T00:23:58.708Z,996.83
2019-03-17T00:25:08.576Z,996.77
2019-03-17T00:26:51.402Z,996.73
2019-03-17T00:27:51.309Z,996.67
2019-03-17T00:29:44.130Z,996.60
2019-03-17T00:30:44.046Z,996.64
2019-03-17T00:32:36.845Z,996.65
2019-03-17T00:33:36.794Z,996.57
2019-03-17T00:35:29.598Z,996.56
2019-03-17T00:36:29.494Z,996.54
2019-03-17T00:38:22.548Z,996.55
2019-03-17T00:39:22.346Z,996.48
2019-03-17T00:41:15.095Z,996.46
2019-03-17T00:42:14.984Z,996.44
2019-03-17T00:44:07.851Z,996.45
2019-03-17T00:45:07.686Z,996.41
2019-03-17T00:47:00.510Z,996.41
2019-03-17T00:48:00.435Z,996.34
2019-03-17T00:49:53.223Z,996.37
2019-03-17T00:50:53.139Z,996.25
2019-03-17T00:52:45.921Z,996.30
2019-03-17T00:53:45.845Z,996.36
2019-03-17T00:55:38.633Z,996.34
2019-03-17T00:56:38.558Z,996.32
2019-03-17T00:58:31.485Z,996.27
2019-03-17T00:59:31.258Z,996.23
2019-03-17T01:01:24.187Z,996.20
2019-03-17T01:02:24.102Z,996.13
2019-03-17T01:04:16.882Z,996.14
2019-03-17T01:05:16.818Z,996.09
2019-03-17T01:07:09.637Z,996.13
2019-03-17T01:08:09.501Z,996.12
2019-03-17T01:10:02.320Z,996.07
2019-03-17T01:11:02.274Z,996.13
2019-03-17T01:12:55.083Z,996.10
2019-03-17T01:13:54.958Z,996.13
2019-03-17T01:15:47.771Z,996.20
2019-03-17T01:16:47.678Z,996.14
2019-03-17T01:18:40.471Z,996.17
2019-03-17T01:19:40.384Z,996.14
2019-03-17T01:21:33.228Z,996.05
2019-03-17T01:22:33.150Z,996.10
2019-03-17T01:24:26.132Z,996.04
2019-03-17T01:25:25.856Z,996.01
2019-03-17T01:27:18.745Z,996.10
2019-03-17T01:28:18.654Z,996.07
2019-03-17T01:30:11.419Z,996.07
2019-03-17T01:31:11.390Z,996.08
2019-03-17T01:33:04.171Z,996.01
2019-03-17T01:34:04.065Z,996.00
2019-03-17T01:35:56.886Z,995.80
2019-03-17T01:36:56.764Z,995.91
2019-03-17T01:38:49.627Z,995.88
2019-03-17T01:39:49.489Z,995.92
2019-03-17T01:41:42.284Z,995.92
2019-03-17T01:42:42.186Z,995.93
2019-03-17T01:44:34.973Z,995.83
2019-03-17T01:45:34.907Z,995.87
2019-03-17T01:47:27.969Z,995.95
2019-03-17T01:48:27.701Z,995.98
2019-03-17T01:50:20.420Z,995.92
2019-03-17T01:51:20.492Z,995.88
2019-03-17T01:53:13.124Z,995.93
2019-03-17T01:54:13.206Z,995.87
2019-03-17T01:56:36.645Z,995.85
2019-03-17T01:57:36.544Z,995.81
2019-03-17T01:59:29.332Z,995.87
2019-03-17T02:00:29.285Z,995.77
2019-03-17T02:02:22.053Z,995.87
2019-03-17T02:03:21.968Z,995.83
2019-03-17T02:05:21.918Z,995.85
2019-03-17T02:06:14.652Z,995.81
2019-03-17T02:08:07.439Z,995.73
2019-03-17T02:09:07.356Z,995.76
2019-03-17T02:11:00.146Z,995.83
2019-03-17T02:12:00.085Z,995.81
2019-03-17T02:13:52.828Z,995.79
2019-03-17T02:14:52.751Z,995.79
2019-03-17T02:16:45.541Z,995.75
2019-03-17T02:17:45.473Z,995.75
2019-03-17T02:19:38.379Z,995.68
2019-03-17T02:20:38.157Z,995.71
2019-03-17T02:22:30.926Z,995.61
2019-03-17T02:23:30.847Z,995.65
2019-03-17T02:25:23.609Z,995.63
2019-03-17T02:26:23.543Z,995.60
2019-03-17T02:28:16.313Z,995.58
2019-03-17T02:29:16.227Z,995.63
2019-03-17T02:31:09.016Z,995.60
2019-03-17T02:32:08.945Z,995.55
2019-03-17T02:34:01.712Z,995.47
2019-03-17T02:35:01.642Z,995.48
2019-03-17T02:36:54.418Z,995.47
2019-03-17T02:37:54.347Z,995.47
2019-03-17T02:39:47.124Z,995.48
2019-03-17T02:40:47.042Z,995.51
2019-03-17T02:42:39.833Z,995.39
2019-03-17T02:43:39.754Z,995.45
2019-03-17T02:45:32.522Z,995.43
2019-03-17T02:46:32.451Z,995.40
2019-03-17T02:48:25.296Z,995.39
2019-03-17T02:49:25.175Z,995.38
2019-03-17T02:51:17.969Z,995.32
2019-03-17T02:52:17.903Z,995.36
2019-03-17T02:54:10.728Z,995.34
2019-03-17T02:55:10.653Z,995.31
2019-03-17T02:57:03.415Z,995.26
2019-03-17T02:58:03.355Z,995.26
2019-03-17T02:59:56.233Z,995.31
2019-03-17T03:00:56.145Z,995.27
2019-03-17T03:02:49.004Z,995.20
2019-03-17T03:03:48.911Z,995.22
2019-03-17T03:05:54.061Z,995.22
2019-03-17T03:06:41.594Z,995.17
2019-03-17T03:08:34.397Z,995.18
2019-03-17T03:09:34.296Z,995.15
2019-03-17T03:11:27.047Z,995.15
2019-03-17T03:12:26.978Z,995.14
2019-03-17T03:14:19.766Z,995.09
2019-03-17T03:15:19.679Z,995.11
2019-03-17T03:17:12.495Z,995.12
2019-03-17T03:18:12.379Z,995.07
2019-03-17T03:20:05.167Z,995.13
2019-03-17T03:21:05.093Z,995.05
2019-03-17T03:22:57.847Z,995.08
2019-03-17T03:23:57.772Z,995.08
2019-03-17T03:25:50.525Z,994.98
2019-03-17T03:26:50.457Z,994.96
2019-03-17T03:28:43.386Z,995.04
2019-03-17T03:29:43.292Z,994.98
2019-03-17T03:31:36.060Z,994.91
2019-03-17T03:32:36.007Z,994.97
2019-03-17T03:34:28.805Z,994.89
2019-03-17T03:35:28.717Z,994.90
2019-03-17T03:37:21.468Z,994.95
2019-03-17T03:38:21.400Z,994.94
2019-03-17T03:40:14.183Z,994.96
2019-03-17T03:41:14.109Z,994.92
2019-03-17T03:43:06.900Z,994.92
2019-03-17T03:44:06.800Z,994.91
2019-03-17T03:45:59.630Z,994.78
2019-03-17T03:46:59.533Z,994.85
2019-03-17T03:48:52.263Z,994.82
2019-03-17T03:49:52.185Z,994.80
2019-03-17T03:51:44.940Z,994.89
2019-03-17T03:52:44.872Z,994.82
2019-03-17T03:54:37.659Z,994.79
2019-03-17T03:55:37.570Z,994.77
2019-03-17T03:57:30.342Z,994.69
2019-03-17T03:58:30.270Z,994.70
2019-03-17T04:00:23.033Z,994.65
2019-03-17T04:01:22.951Z,994.65
2019-03-17T04:03:15.727Z,994.62
2019-03-17T04:04:15.648Z,994.60
2019-03-17T04:06:08.414Z,994.58
2019-03-17T04:07:08.355Z,994.62
2019-03-17T04:09:01.117Z,994.54
2019-03-17T04:10:01.039Z,994.59
2019-03-17T04:11:53.789Z,994.57
2019-03-17T04:12:53.851Z,994.55
2019-03-17T04:14:46.494Z,994.54
2019-03-17T04:15:46.414Z,994.55
2019-03-17T04:17:39.201Z,994.53
2019-03-17T04:18:39.131Z,994.49
2019-03-17T04:20:31.915Z,994.51
2019-03-17T04:21:31.835Z,994.49
2019-03-17T04:23:24.617Z,994.45
2019-03-17T04:24:24.528Z,994.46
2019-03-17T04:26:17.319Z,994.46
2019-03-17T04:27:17.235Z,994.46
2019-03-17T04:29:10.059Z,994.43
2019-03-17T04:30:09.985Z,994.41
2019-03-17T04:32:02.759Z,994.44
2019-03-17T04:33:02.683Z,994.34
2019-03-17T04:34:55.459Z,994.35
2019-03-17T04:35:55.409Z,994.31
2019-03-17T04:37:48.149Z,994.26
2019-03-17T04:38:48.086Z,994.24
2019-03-17T04:40:40.858Z,994.28
2019-03-17T04:41:40.778Z,994.23
2019-03-17T04:43:33.545Z,994.22
2019-03-17T04:44:33.464Z,994.22
2019-03-17T04:46:26.219Z,994.21
2019-03-17T04:47:26.155Z,994.16
2019-03-17T04:49:18.949Z,994.17
2019-03-17T04:50:18.855Z,994.11
2019-03-17T04:52:11.627Z,994.08
2019-03-17T04:53:11.554Z,994.10
2019-03-17T04:55:04.323Z,994.03
2019-03-17T04:56:04.245Z,994.10
2019-03-17T04:57:57.004Z,994.09
2019-03-17T04:58:56.978Z,994.03
2019-03-17T05:00:49.746Z,994.07
2019-03-17T05:01:49.628Z,994.08
2019-03-17T05:03:42.413Z,994.19
2019-03-17T05:04:42.330Z,994.07
2019-03-17T05:06:35.084Z,994.11
2019-03-17T05:07:35.015Z,994.10
2019-03-17T05:09:27.845Z,994.14
2019-03-17T05:10:27.716Z,994.04
2019-03-17T05:12:20.501Z,994.00
2019-03-17T05:13:20.405Z,994.06
2019-03-17T05:15:13.212Z,994.02
2019-03-17T05:16:13.154Z,994.01
2019-03-17T05:18:05.881Z,993.95
2019-03-17T05:19:05.813Z,993.94
2019-03-17T05:20:58.579Z,993.88
2019-03-17T05:21:58.509Z,993.93
2019-03-17T05:23:51.280Z,993.85
2019-03-17T05:24:51.200Z,993.80
2019-03-17T05:26:43.971Z,993.75
2019-03-17T05:27:43.905Z,993.75
2019-03-17T05:29:36.672Z,993.57
2019-03-17T05:30:36.588Z,993.70
2019-03-17T05:32:29.358Z,993.77
2019-03-17T05:33:29.283Z,993.73
2019-03-17T05:35:22.057Z,993.71
2019-03-17T05:36:21.969Z,993.74
2019-03-17T05:38:14.722Z,993.77
2019-03-17T05:39:14.651Z,993.78
2019-03-17T05:41:07.430Z,993.74
2019-03-17T05:42:07.356Z,993.72
2019-03-17T05:44:00.165Z,993.72
2019-03-17T05:45:00.208Z,993.68
2019-03-17T05:46:52.830Z,993.71
2019-03-17T05:47:52.765Z,993.70
2019-03-17T05:49:45.528Z,993.71
2019-03-17T05:50:45.454Z,993.69
2019-03-17T05:52:38.245Z,993.68
2019-03-17T05:53:40.351Z,993.68
2019-03-17T05:55:30.928Z,993.70
2019-03-17T05:56:30.854Z,993.70
2019-03-17T05:58:23.653Z,993.70
2019-03-17T05:59:23.601Z,993.72
2019-03-17T06:01:16.424Z,993.64
2019-03-17T06:02:16.338Z,993.71
2019-03-17T06:04:09.098Z,993.75
2019-03-17T06:05:09.050Z,993.75
2019-03-17T06:07:01.775Z,993.69
2019-03-17T06:08:01.705Z,993.71
2019-03-17T06:09:54.487Z,993.76
2019-03-17T06:10:54.445Z,993.75
2019-03-17T06:12:47.193Z,993.83
2019-03-17T06:13:47.099Z,993.72
2019-03-17T06:15:39.882Z,993.77
2019-03-17T06:16:39.798Z,993.69
2019-03-17T06:18:32.607Z,993.75
2019-03-17T06:19:32.546Z,993.77
2019-03-17T06:21:25.339Z,993.86
2019-03-17T06:22:25.247Z,993.76
2019-03-17T06:24:18.024Z,993.79
2019-03-17T06:25:17.950Z,993.74
2019-03-17T06:27:10.712Z,993.77
2019-03-17T06:28:10.642Z,993.81
2019-03-17T06:30:03.426Z,993.71
2019-03-17T06:31:03.342Z,993.82
2019-03-17T06:32:56.126Z,993.81
2019-03-17T06:33:56.061Z,993.74
2019-03-17T06:35:48.844Z,993.79
2019-03-17T06:36:48.774Z,993.78
2019-03-17T06:38:41.540Z,993.83
2019-03-17T06:39:41.479Z,993.84
2019-03-17T06:41:34.260Z,993.82
2019-03-17T06:42:34.175Z,993.84
2019-03-17T06:44:26.965Z,993.79
2019-03-17T06:45:26.868Z,993.84
2019-03-17T06:47:19.622Z,993.86
2019-03-17T06:48:19.560Z,993.77
2019-03-17T06:50:12.330Z,993.75
2019-03-17T06:51:12.255Z,993.69
2019-03-17T06:53:05.029Z,993.78
2019-03-17T06:54:04.956Z,993.66
2019-03-17T06:55:57.772Z,993.85
2019-03-17T06:56:57.667Z,993.87
2019-03-17T06:58:50.458Z,993.82
2019-03-17T06:59:50.496Z,993.81
2019-03-17T07:01:43.164Z,993.84
2019-03-17T07:02:43.086Z,993.85
2019-03-17T07:04:35.925Z,993.88
2019-03-17T07:05:35.833Z,993.81
2019-03-17T07:07:28.615Z,993.78
2019-03-17T07:08:28.539Z,993.77
2019-03-17T07:10:21.322Z,993.79
2019-03-17T07:11:21.253Z,993.73
2019-03-17T07:13:14.008Z,993.69
2019-03-17T07:14:13.957Z,993.69
2019-03-17T07:16:06.721Z,993.71
2019-03-17T07:17:06.890Z,993.72
2019-03-17T07:18:59.457Z,993.68
2019-03-17T07:19:59.353Z,993.68
2019-03-17T07:21:52.156Z,993.71
2019-03-17T07:22:52.068Z,993.71
2019-03-17T07:24:44.835Z,993.72
2019-03-17T07:25:44.766Z,993.77
2019-03-17T07:27:37.558Z,993.80
2019-03-17T07:28:37.487Z,993.77
2019-03-17T07:30:30.247Z,993.79
2019-03-17T07:31:30.165Z,993.74
2019-03-17T07:33:22.953Z,993.80
2019-03-17T07:34:22.882Z,993.82
2019-03-17T07:36:15.661Z,993.79
2019-03-17T07:37:15.647Z,993.75
2019-03-17T07:39:12.090Z,993.76
2019-03-17T07:40:08.270Z,993.78
2019-03-17T07:42:01.057Z,993.77
2019-03-17T07:43:00.980Z,993.78
2019-03-17T07:44:53.734Z,993.79
2019-03-17T07:45:53.668Z,993.75
2019-03-17T07:47:46.514Z,993.75
2019-03-17T07:48:46.446Z,993.79
2019-03-17T07:50:39.238Z,993.81
2019-03-17T07:51:39.155Z,993.74
2019-03-17T07:53:31.899Z,993.74
2019-03-17T07:54:31.845Z,993.80
2019-03-17T07:56:24.605Z,993.78
2019-03-17T07:57:24.530Z,993.77
2019-03-17T07:59:17.291Z,993.72
2019-03-17T08:00:17.236Z,993.80
2019-03-17T08:02:10.011Z,993.71
2019-03-17T08:03:09.928Z,993.73
2019-03-17T08:05:02.692Z,993.68
2019-03-17T08:06:02.648Z,993.69
2019-03-17T08:07:55.441Z,993.78
2019-03-17T08:08:55.368Z,993.85
2019-03-17T08:10:48.180Z,993.86
2019-03-17T08:11:48.105Z,993.75
2019-03-17T08:13:40.882Z,993.78
2019-03-17T08:14:40.805Z,993.77
2019-03-17T08:16:33.604Z,993.76
2019-03-17T08:17:33.524Z,993.74
2019-03-17T08:19:26.327Z,993.62
2019-03-17T08:20:26.254Z,993.70
2019-03-17T08:22:19.054Z,993.83
2019-03-17T08:23:18.989Z,993.73
2019-03-17T08:25:11.789Z,993.80
2019-03-17T08:26:11.765Z,993.78
2019-03-17T08:28:04.523Z,993.90
2019-03-17T08:29:04.455Z,993.86
2019-03-17T08:30:57.251Z,993.76
2019-03-17T08:31:57.264Z,993.79
2019-03-17T08:33:49.998Z,993.78
2019-03-17T08:34:49.910Z,993.80
2019-03-17T08:36:42.754Z,993.81
2019-03-17T08:37:42.671Z,993.68
2019-03-17T08:39:35.491Z,993.65
2019-03-17T08:40:35.395Z,993.67
2019-03-17T08:42:28.244Z,993.68
2019-03-17T08:43:28.144Z,993.67
2019-03-17T08:45:21.001Z,993.71
2019-03-17T08:46:20.870Z,993.70
2019-03-17T08:48:13.673Z,993.72
2019-03-17T08:49:13.594Z,993.74
2019-03-17T08:51:06.377Z,993.77
2019-03-17T08:52:06.299Z,993.79
2019-03-17T08:53:59.107Z,993.79
2019-03-17T08:54:59.076Z,993.90
2019-03-17T08:56:51.822Z,993.82
2019-03-17T08:57:51.749Z,993.93
2019-03-17T08:59:44.676Z,993.91
2019-03-17T09:00:44.550Z,993.85
2019-03-17T09:02:37.349Z,993.78
2019-03-17T09:03:37.234Z,993.88
2019-03-17T09:05:30.013Z,993.81
2019-03-17T09:06:29.949Z,993.92
2019-03-17T09:08:34.339Z,993.79
2019-03-17T09:09:22.670Z,993.80
2019-03-17T09:11:15.439Z,993.84
2019-03-17T09:12:15.376Z,993.96
2019-03-17T09:14:08.213Z,993.87
2019-03-17T09:15:08.108Z,993.84
2019-03-17T09:17:13.400Z,993.81
2019-03-17T09:18:00.811Z,993.74
2019-03-17T09:19:54.107Z,993.80
2019-03-17T09:20:53.869Z,993.84
2019-03-17T09:22:46.695Z,993.87
2019-03-17T09:23:46.592Z,993.88
2019-03-17T09:25:39.436Z,993.85
2019-03-17T09:26:39.372Z,993.81
2019-03-17T09:28:32.193Z,993.88
2019-03-17T09:29:32.113Z,993.90
2019-03-17T09:31:24.944Z,993.92
2019-03-17T09:32:24.917Z,993.86
2019-03-17T09:34:17.715Z,993.95
2019-03-17T09:35:17.611Z,993.87
2019-03-17T09:37:10.384Z,993.98
2019-03-17T09:38:10.313Z,993.91
2019-03-17T09:40:03.106Z,993.92
2019-03-17T09:41:03.053Z,993.86
2019-03-17T09:42:55.861Z,993.83
2019-03-17T09:43:55.811Z,993.90
2019-03-17T09:45:48.624Z,993.91
2019-03-17T09:46:48.569Z,993.88
2019-03-17T09:48:41.385Z,993.76
2019-03-17T09:49:41.320Z,993.85
2019-03-17T09:51:34.107Z,993.88
2019-03-17T09:52:34.069Z,993.90
2019-03-17T09:54:26.888Z,993.86
2019-03-17T09:55:26.839Z,993.84
2019-03-17T09:57:19.596Z,993.88
2019-03-17T09:58:19.567Z,993.89
2019-03-17T10:00:12.309Z,993.92
2019-03-17T10:01:12.249Z,993.93
2019-03-17T10:03:05.090Z,993.84
2019-03-17T10:04:05.021Z,993.83
2019-03-17T10:05:57.789Z,993.78
2019-03-17T10:06:57.735Z,993.86
2019-03-17T10:08:59.297Z,993.79
2019-03-17T10:09:50.441Z,993.74
2019-03-17T10:11:43.419Z,993.81
2019-03-17T10:12:43.318Z,993.85
2019-03-17T10:14:36.104Z,993.86
2019-03-17T10:15:36.010Z,993.93
2019-03-17T10:17:28.790Z,993.93
2019-03-17T10:18:28.719Z,993.77
2019-03-17T10:20:21.491Z,993.86
2019-03-17T10:21:21.428Z,993.91
2019-03-17T10:23:14.206Z,993.88
2019-03-17T10:24:14.131Z,993.92
2019-03-17T10:26:06.908Z,993.86
2019-03-17T10:27:06.839Z,993.86
2019-03-17T10:28:59.630Z,993.89
2019-03-17T10:29:59.541Z,993.77
2019-03-17T10:31:52.314Z,993.78
2019-03-17T10:32:52.259Z,993.77
2019-03-17T10:34:45.033Z,993.77
2019-03-17T10:35:44.973Z,993.87
2019-03-17T10:37:37.729Z,993.80
2019-03-17T10:38:37.665Z,993.82
2019-03-17T10:40:30.421Z,993.81
2019-03-17T10:41:30.354Z,993.85
2019-03-17T10:43:23.161Z,993.90
2019-03-17T10:44:23.134Z,993.85
2019-03-17T10:46:15.822Z,993.84
2019-03-17T10:47:15.760Z,993.90
2019-03-17T10:49:08.567Z,993.77
2019-03-17T10:50:08.492Z,993.83
2019-03-17T10:52:01.296Z,993.91
2019-03-17T10:53:01.209Z,993.80
2019-03-17T10:54:54.002Z,993.86
2019-03-17T10:55:53.929Z,993.90
2019-03-17T10:57:46.713Z,993.75
2019-03-17T10:58:46.632Z,993.80
2019-03-17T11:00:39.384Z,993.79
2019-03-17T11:01:39.324Z,993.84
2019-03-17T11:03:32.120Z,993.78
2019-03-17T11:04:32.049Z,993.82
2019-03-17T11:06:24.810Z,993.93
2019-03-17T11:07:24.741Z,993.89
2019-03-17T11:09:25.208Z,993.96
2019-03-17T11:10:17.464Z,994.00
2019-03-17T11:12:10.249Z,993.88
2019-03-17T11:13:10.187Z,994.05
2019-03-17T11:15:02.973Z,994.10
2019-03-17T11:16:02.893Z,994.07
2019-03-17T11:17:55.659Z,993.95
2019-03-17T11:18:55.585Z,993.93
2019-03-17T11:20:48.396Z,993.97
2019-03-17T11:21:48.302Z,994.01
2019-03-17T11:23:41.085Z,993.98
2019-03-17T11:24:41.010Z,993.94
2019-03-17T11:26:33.814Z,994.01
2019-03-17T11:27:33.718Z,993.88
2019-03-17T11:29:26.498Z,993.94
2019-03-17T11:30:26.423Z,993.94
2019-03-17T11:32:19.187Z,993.93
2019-03-17T11:33:19.126Z,993.92
2019-03-17T11:35:11.935Z,993.88
2019-03-17T11:36:11.843Z,993.96
2019-03-17T11:38:04.726Z,993.93
2019-03-17T11:39:04.587Z,993.92
2019-03-17T11:40:57.410Z,993.97
2019-03-17T11:41:57.347Z,993.90
2019-03-17T11:43:50.171Z,993.98
2019-03-17T11:44:50.092Z,994.01
2019-03-17T11:46:42.938Z,993.99
2019-03-17T11:47:42.821Z,994.09
2019-03-17T11:49:35.632Z,994.09
2019-03-17T11:50:35.555Z,994.13
2019-03-17T11:52:28.358Z,994.03
2019-03-17T11:53:28.282Z,993.69
2019-03-17T11:55:21.110Z,994.11
2019-03-17T11:56:21.073Z,994.17
2019-03-17T11:58:13.979Z,994.13
2019-03-17T11:59:13.923Z,994.28
2019-03-17T12:01:06.572Z,994.18
2019-03-17T12:02:06.506Z,994.16
2019-03-17T12:03:59.287Z,994.07
2019-03-17T12:04:59.212Z,994.17
2019-03-17T12:06:51.976Z,994.11
2019-03-17T12:07:52.009Z,994.23
2019-03-17T12:09:49.997Z,994.49
2019-03-17T12:10:44.646Z,994.20
2019-03-17T12:12:37.394Z,994.15
2019-03-17T12:13:37.345Z,994.26
2019-03-17T12:15:30.106Z,994.09
2019-03-17T12:16:30.043Z,994.04
2019-03-17T12:18:22.887Z,994.02
2019-03-17T12:19:22.775Z,994.02
2019-03-17T12:21:15.514Z,994.07
2019-03-17T12:22:15.441Z,993.87
2019-03-17T12:24:08.242Z,994.00
2019-03-17T12:25:08.168Z,994.00
2019-03-17T12:27:00.997Z,994.07
2019-03-17T12:28:00.861Z,994.07
2019-03-17T12:29:53.656Z,994.29
2019-03-17T12:30:53.567Z,994.18
2019-03-17T12:32:46.373Z,994.18
2019-03-17T12:33:46.267Z,994.18
2019-03-17T12:35:39.076Z,994.16
2019-03-17T12:36:39.003Z,994.23
2019-03-17T12:38:31.789Z,994.19
2019-03-17T12:39:31.680Z,994.18
2019-03-17T12:41:24.452Z,994.17
2019-03-17T12:42:24.391Z,994.19
2019-03-17T12:44:17.167Z,994.02
2019-03-17T12:45:17.086Z,994.18
2019-03-17T12:47:09.837Z,994.16
2019-03-17T12:48:09.782Z,994.23
2019-03-17T12:50:02.555Z,994.47
2019-03-17T12:51:02.580Z,994.86
2019-03-17T12:52:55.344Z,994.80
2019-03-17T12:53:55.437Z,994.88
2019-03-17T12:55:48.054Z,994.82
2019-03-17T12:56:47.996Z,994.85
2019-03-17T12:58:40.893Z,994.96
2019-03-17T12:59:40.791Z,994.95
2019-03-17T13:01:33.663Z,995.00
2019-03-17T13:02:33.508Z,995.04
2019-03-17T13:04:26.504Z,995.18
2019-03-17T13:05:26.271Z,995.13
2019-03-17T13:07:18.995Z,995.19
2019-03-17T13:08:18.904Z,995.19
2019-03-17T13:10:15.865Z,995.26
2019-03-17T13:11:12.276Z,995.28
2019-03-17T13:13:05.490Z,995.29
2019-03-17T13:14:06.873Z,995.46
2019-03-17T13:15:58.267Z,995.41
2019-03-17T13:16:58.106Z,995.53
2019-03-17T13:18:51.037Z,995.48
2019-03-17T13:19:50.882Z,995.50
2019-03-17T13:21:43.673Z,995.52
2019-03-17T13:22:43.618Z,995.56
2019-03-17T13:24:36.366Z,995.71
2019-03-17T13:25:36.301Z,995.69
2019-03-17T13:27:28.185Z,995.78
2019-03-17T13:28:28.120Z,995.73
2019-03-17T13:30:20.916Z,995.63
2019-03-17T13:31:20.834Z,995.69
2019-03-17T13:33:13.474Z,995.75
2019-03-17T13:34:13.494Z,995.78
2019-03-17T13:36:06.888Z,995.70
2019-03-17T13:37:06.694Z,995.61
2019-03-17T13:38:59.393Z,995.56
2019-03-17T13:39:59.467Z,995.53
2019-03-17T13:41:52.138Z,995.59
2019-03-17T13:42:52.103Z,995.62
2019-03-17T13:44:44.857Z,995.62
2019-03-17T13:45:44.802Z,995.65
2019-03-17T13:47:37.563Z,995.73
2019-03-17T13:48:37.558Z,995.72
2019-03-17T13:50:30.558Z,995.86
2019-03-17T13:51:30.225Z,995.91
2019-03-17T13:53:23.028Z,995.96
2019-03-17T13:54:22.318Z,996.00
2019-03-17T13:56:15.117Z,995.98
2019-03-17T13:57:15.013Z,996.03
2019-03-17T13:59:07.966Z,995.99
2019-03-17T14:00:07.790Z,995.99
2019-03-17T14:02:01.089Z,995.93
2019-03-17T14:03:01.022Z,995.92
2019-03-17T14:04:53.638Z,995.82
2019-03-17T14:05:53.460Z,995.81
2019-03-17T14:07:46.189Z,995.77
2019-03-17T14:08:46.305Z,995.73
2019-03-17T14:10:41.408Z,995.76
2019-03-17T14:11:38.862Z,995.82
2019-03-17T14:13:31.630Z,995.65
2019-03-17T14:14:31.564Z,995.66
2019-03-17T14:16:24.331Z,995.61
2019-03-17T14:17:24.254Z,995.71
2019-03-17T14:19:17.035Z,995.69
2019-03-17T14:20:16.946Z,995.68
2019-03-17T14:22:09.739Z,995.67
2019-03-17T14:23:09.666Z,995.74
2019-03-17T14:25:02.466Z,995.79
2019-03-17T14:26:02.374Z,995.77
2019-03-17T14:27:54.235Z,995.72
2019-03-17T14:28:54.166Z,995.69
2019-03-17T14:30:46.972Z,995.71
2019-03-17T14:31:46.880Z,995.69
2019-03-17T14:33:39.635Z,995.74
2019-03-17T14:34:39.569Z,995.77
2019-03-17T14:36:32.329Z,996.03
2019-03-17T14:37:32.270Z,996.11
2019-03-17T14:39:25.024Z,996.14
2019-03-17T14:40:24.953Z,996.23
2019-03-17T14:42:17.704Z,996.13
2019-03-17T14:43:17.643Z,996.14
2019-03-17T14:45:10.415Z,996.20
2019-03-17T14:46:10.335Z,996.24
2019-03-17T14:48:03.107Z,996.34
2019-03-17T14:49:03.033Z,996.30
2019-03-17T14:50:55.819Z,996.37
2019-03-17T14:51:55.733Z,996.29
2019-03-17T14:53:48.527Z,996.29
2019-03-17T14:54:48.459Z,996.37
2019-03-17T14:56:41.257Z,996.34
2019-03-17T14:57:41.136Z,996.40
2019-03-17T14:59:33.900Z,996.44
2019-03-17T15:00:33.824Z,996.43
2019-03-17T15:02:26.582Z,996.35
2019-03-17T15:03:26.646Z,996.34
2019-03-17T15:05:19.478Z,996.37
2019-03-17T15:06:19.255Z,996.40
2019-03-17T15:08:12.611Z,996.46
2019-03-17T15:09:12.555Z,996.53
2019-03-17T15:11:06.267Z,996.63
2019-03-17T15:12:05.201Z,996.62
2019-03-17T15:13:58.091Z,996.74
2019-03-17T15:14:57.924Z,996.73
2019-03-17T15:16:50.931Z,996.70
2019-03-17T15:17:50.849Z,996.74
2019-03-17T15:19:43.628Z,996.82
2019-03-17T15:20:43.544Z,996.85
2019-03-17T15:22:36.309Z,996.81
2019-03-17T15:23:36.234Z,996.77
2019-03-17T15:25:29.063Z,996.70
2019-03-17T15:26:28.990Z,996.75
2019-03-17T15:28:21.740Z,996.79
2019-03-17T15:29:21.672Z,996.70
2019-03-17T15:31:14.435Z,996.64
2019-03-17T15:32:14.359Z,996.75
2019-03-17T15:34:07.120Z,996.68
2019-03-17T15:35:07.054Z,996.70
2019-03-17T15:36:59.826Z,996.74
2019-03-17T15:37:59.751Z,996.83
2019-03-17T15:39:52.518Z,996.82
2019-03-17T15:40:52.434Z,996.85
2019-03-17T15:42:45.200Z,996.76
2019-03-17T15:43:45.136Z,996.66
2019-03-17T15:45:37.922Z,996.60
2019-03-17T15:46:37.840Z,996.66
2019-03-17T15:48:30.598Z,996.76
2019-03-17T15:49:30.532Z,996.79
2019-03-17T15:51:23.305Z,996.79
2019-03-17T15:52:23.231Z,996.83
2019-03-17T15:54:15.997Z,996.79
2019-03-17T15:55:15.925Z,996.80
2019-03-17T15:57:08.728Z,996.78
2019-03-17T15:58:08.645Z,996.74
2019-03-17T16:00:01.461Z,996.73
2019-03-17T16:01:01.516Z,996.68
2019-03-17T16:02:54.231Z,996.62
2019-03-17T16:03:54.150Z,996.65
2019-03-17T16:05:47.062Z,996.60
2019-03-17T16:06:46.869Z,996.57
2019-03-17T16:08:39.628Z,996.59
2019-03-17T16:09:39.563Z,996.60
2019-03-17T16:11:32.324Z,996.70
2019-03-17T16:12:32.247Z,996.70
2019-03-17T16:14:25.049Z,996.70
2019-03-17T16:15:24.935Z,996.65
2019-03-17T16:17:17.702Z,996.68
2019-03-17T16:18:17.612Z,996.76
2019-03-17T16:20:10.427Z,996.84
2019-03-17T16:21:10.329Z,996.87
2019-03-17T16:23:03.140Z,996.99
2019-03-17T16:24:03.096Z,997.04
2019-03-17T16:25:55.834Z,997.07
2019-03-17T16:26:55.877Z,997.07
2019-03-17T16:28:48.535Z,997.01
2019-03-17T16:29:48.462Z,997.03
2019-03-17T16:31:41.226Z,997.01
2019-03-17T16:32:41.158Z,997.05
2019-03-17T16:34:33.952Z,997.06
2019-03-17T16:35:34.063Z,997.06
2019-03-17T16:37:26.864Z,997.07
2019-03-17T16:38:26.678Z,997.04
2019-03-17T16:40:19.517Z,997.12
2019-03-17T16:41:19.373Z,997.19
2019-03-17T16:43:13.075Z,997.24
2019-03-17T16:44:12.989Z,997.34
2019-03-17T16:46:05.808Z,997.35
2019-03-17T16:47:05.724Z,997.35
2019-03-17T16:48:58.648Z,997.41
2019-03-17T16:49:59.040Z,997.48
2019-03-17T16:51:51.193Z,997.52
2019-03-17T16:52:51.108Z,997.51
2019-03-17T16:54:43.920Z,997.49
2019-03-17T16:55:44.421Z,997.49
2019-03-17T16:57:36.649Z,997.49
2019-03-17T16:58:37.141Z,997.55
2019-03-17T17:00:29.330Z,997.62
2019-03-17T17:01:29.886Z,997.63
2019-03-17T17:03:22.062Z,997.64
2019-03-17T17:04:21.978Z,997.69
2019-03-17T17:06:14.746Z,997.80
2019-03-17T17:07:14.664Z,997.83
2019-03-17T17:09:07.443Z,997.59
2019-03-17T17:10:07.378Z,997.67
2019-03-17T17:11:59.362Z,997.77
2019-03-17T17:12:59.296Z,997.84
2019-03-17T17:14:52.585Z,997.81
2019-03-17T17:15:52.001Z,997.89
2019-03-17T17:17:45.291Z,997.92
2019-03-17T17:18:44.681Z,997.88
2019-03-17T17:20:37.439Z,997.93
2019-03-17T17:21:37.377Z,998.07
2019-03-17T17:23:30.150Z,998.09
2019-03-17T17:24:30.075Z,998.16
2019-03-17T17:26:22.862Z,998.23
2019-03-17T17:27:22.763Z,998.24
2019-03-17T17:29:16.062Z,998.20
2019-03-17T17:30:15.454Z,998.28
2019-03-17T17:32:08.220Z,998.26
2019-03-17T17:33:08.142Z,998.32
2019-03-17T17:35:00.914Z,998.37
2019-03-17T17:36:00.833Z,998.44
2019-03-17T17:37:53.616Z,998.36
2019-03-17T17:38:53.517Z,998.34
2019-03-17T17:40:46.288Z,998.39
2019-03-17T17:41:46.217Z,998.26
2019-03-17T17:43:38.997Z,998.11
2019-03-17T17:44:38.924Z,998.03
2019-03-17T17:46:31.676Z,998.06
2019-03-17T17:47:31.611Z,998.16
2019-03-17T17:49:24.410Z,998.23
2019-03-17T17:50:24.908Z,998.26
2019-03-17T17:52:17.605Z,998.29
2019-03-17T17:53:17.015Z,998.30
2019-03-17T17:55:09.783Z,998.28
2019-03-17T17:56:09.713Z,998.26
2019-03-17T17:58:02.497Z,998.25